Rainbow City, Alabama
Current Conditions -  °F | °C
As of 3:35 AM on Thursday 27 Nov 2014 (Local Time) from KGAD Reporting Station
Clear Clear  
Wind Chill: 35°   Ceiling: Unl
Heat Index: 39°   Visibility: 10mi
Dew Point: 28°   Wind: 6mph
Humidity: 65%   Direction: 280°W
Pressure: 30.19"   Gusts: NA
Location:  33.95°N, 86.04°W
Report Text: KGAD 270935Z 28005KT 10SM CLR 04/M02 A3019 RMK AO1
Loading
Personal Weather Stations






























Interactive Weather Map New forecast layout! Learn more

10-Day Weather Forecast

Advertisements
Track Severe Weather on mobile